createdAt,value
2023-01-12T00:01:54.091Z,12.20
2023-01-12T00:04:21.365Z,10.13
2023-01-12T00:06:48.359Z,15.15
2023-01-12T00:09:15.527Z,11.55
2023-01-12T00:11:42.416Z,6.95
2023-01-12T00:14:09.771Z,6.93
2023-01-12T00:16:43.575Z,11.68
2023-01-12T00:19:17.331Z,12.43
2023-01-12T00:21:57.114Z,11.20
2023-01-12T00:24:33.885Z,12.15
2023-01-12T00:27:02.710Z,17.98
2023-01-12T00:29:30.060Z,13.63
2023-01-12T00:31:58.841Z,8.60
2023-01-12T00:34:27.937Z,8.48
2023-01-12T00:36:56.307Z,7.75
2023-01-12T00:39:23.304Z,11.45
2023-01-12T00:42:08.713Z,9.18
2023-01-12T00:44:54.312Z,6.47
2023-01-12T00:47:21.497Z,6.75
2023-01-12T00:49:48.519Z,10.95
2023-01-12T00:52:29.819Z,15.25
2023-01-12T00:54:57.457Z,7.50
2023-01-12T00:57:24.527Z,8.77
2023-01-12T00:59:55.117Z,5.20
2023-01-12T01:02:22.725Z,10.88
2023-01-12T01:04:50.480Z,13.40
2023-01-12T01:07:18.512Z,13.65
2023-01-12T01:09:45.619Z,17.20
2023-01-12T01:12:12.610Z,11.30
2023-01-12T01:14:39.683Z,8.55
2023-01-12T01:17:06.907Z,7.78
2023-01-12T01:19:34.020Z,10.48
2023-01-12T01:22:01.104Z,7.90
2023-01-12T01:24:28.055Z,17.65
2023-01-12T01:26:54.935Z,11.25
2023-01-12T01:29:21.883Z,17.27
2023-01-12T01:31:48.798Z,12.85
2023-01-12T01:34:15.742Z,10.48
2023-01-12T01:36:42.828Z,11.65
2023-01-12T01:39:09.879Z,9.45
2023-01-12T01:41:36.822Z,7.88
2023-01-12T01:44:29.623Z,13.45
2023-01-12T01:47:06.677Z,14.45
2023-01-12T01:49:47.463Z,13.70
2023-01-12T01:52:18.467Z,10.20
2023-01-12T01:54:57.183Z,10.95
2023-01-12T01:57:33.287Z,13.07
2023-01-12T02:00:01.821Z,7.78
2023-01-12T02:02:28.967Z,9.43
2023-01-12T02:04:56.685Z,9.77
2023-01-12T02:07:23.964Z,16.15
2023-01-12T02:09:51.147Z,9.13
2023-01-12T02:12:36.951Z,10.25
2023-01-12T02:15:22.662Z,8.57
2023-01-12T02:18:01.458Z,9.85
2023-01-12T02:20:48.409Z,15.60
2023-01-12T02:23:27.416Z,12.48
2023-01-12T02:26:12.590Z,12.20
2023-01-12T02:28:39.439Z,12.75
2023-01-12T02:31:18.808Z,14.05
2023-01-12T02:34:24.538Z,12.32
2023-01-12T02:37:20.933Z,8.85
2023-01-12T02:40:01.548Z,9.52
2023-01-12T02:42:54.862Z,10.23
2023-01-12T02:45:27.619Z,12.73
2023-01-12T02:48:22.508Z,14.10
2023-01-12T02:51:26.756Z,6.13
2023-01-12T02:54:08.033Z,20.40
2023-01-12T02:56:48.609Z,10.85
2023-01-12T02:59:36.609Z,7.03
2023-01-12T03:02:29.801Z,9.00
2023-01-12T03:05:19.701Z,14.43
2023-01-12T03:08:11.485Z,9.35
2023-01-12T03:10:58.641Z,12.00
2023-01-12T03:13:30.500Z,8.45
2023-01-12T03:16:00.300Z,10.40
2023-01-12T03:18:56.697Z,5.82
2023-01-12T03:21:33.218Z,11.60
2023-01-12T03:24:19.367Z,8.27
2023-01-12T03:27:02.842Z,8.95
2023-01-12T03:29:43.368Z,10.23
2023-01-12T03:32:13.732Z,12.13
2023-01-12T03:34:44.639Z,9.10
2023-01-12T03:37:25.225Z,21.92
2023-01-12T03:40:19.280Z,6.40
2023-01-12T03:43:02.927Z,12.88
2023-01-12T03:45:39.797Z,12.70
2023-01-12T03:48:15.694Z,6.40
2023-01-12T03:51:07.679Z,8.35
2023-01-12T03:53:42.133Z,9.27
2023-01-12T03:56:25.748Z,10.13
2023-01-12T03:59:16.024Z,9.48
2023-01-12T04:01:54.396Z,6.43
2023-01-12T04:04:28.943Z,10.18
2023-01-12T04:07:13.934Z,4.47
2023-01-12T04:09:55.274Z,12.00
2023-01-12T04:12:32.904Z,15.52
2023-01-12T04:15:08.263Z,10.43
2023-01-12T04:17:42.735Z,3.95
2023-01-12T04:20:15.569Z,8.05
2023-01-12T04:22:51.370Z,10.98
2023-01-12T04:25:25.082Z,11.77
2023-01-12T04:28:10.815Z,7.90
2023-01-12T04:30:47.324Z,13.77
2023-01-12T04:33:34.793Z,6.45
2023-01-12T04:36:07.728Z,15.63
2023-01-12T04:38:38.024Z,7.75
2023-01-12T04:41:13.502Z,6.53
2023-01-12T04:43:41.431Z,7.50
2023-01-12T04:49:01.411Z,8.60
2023-01-12T04:51:41.657Z,14.45
2023-01-12T04:57:40.191Z,12.25
2023-01-12T05:00:16.673Z,8.60
2023-01-12T05:03:04.906Z,9.88
2023-01-12T05:08:57.382Z,6.25
2023-01-12T05:11:54.024Z,11.60
2023-01-12T05:14:30.231Z,22.00
2023-01-12T05:17:08.276Z,8.13
2023-01-12T05:19:39.193Z,11.88
2023-01-12T05:22:08.582Z,12.52
2023-01-12T05:24:35.658Z,12.85
2023-01-12T05:27:02.572Z,10.60
2023-01-12T05:29:29.619Z,5.65
2023-01-12T05:31:56.488Z,10.75
2023-01-12T05:34:23.492Z,8.07
2023-01-12T05:36:50.395Z,6.50
2023-01-12T05:39:17.375Z,7.80
2023-01-12T05:42:02.727Z,6.95
2023-01-12T05:44:29.646Z,10.35
2023-01-12T05:46:56.605Z,7.40
2023-01-12T05:49:23.531Z,5.82
2023-01-12T05:51:50.479Z,6.32
2023-01-12T05:54:17.418Z,9.35
2023-01-12T05:56:44.450Z,8.38
2023-01-12T05:59:12.140Z,6.50
2023-01-12T06:01:40.790Z,7.85
2023-01-12T06:04:07.822Z,10.02
2023-01-12T06:06:34.742Z,11.65
2023-01-12T06:09:03.411Z,7.85
2023-01-12T06:12:08.555Z,7.82
2023-01-12T06:14:35.702Z,7.05
2023-01-12T06:17:02.670Z,12.88
2023-01-12T06:19:29.613Z,2.72
2023-01-12T06:21:59.532Z,8.43
2023-01-12T06:24:28.345Z,9.38
2023-01-12T06:26:55.986Z,5.72
2023-01-12T06:29:22.940Z,7.82
2023-01-12T06:31:49.983Z,6.40
2023-01-12T06:34:17.295Z,5.65
2023-01-12T06:36:44.312Z,4.90
2023-01-12T06:39:14.255Z,4.30
2023-01-12T06:41:59.666Z,4.10
2023-01-12T06:44:26.621Z,7.30
2023-01-12T06:46:53.568Z,4.95
2023-01-12T06:49:20.460Z,6.57
2023-01-12T06:51:49.137Z,5.90
2023-01-12T06:54:18.824Z,4.82
2023-01-12T06:56:46.159Z,4.95
2023-01-12T06:59:14.171Z,4.10
2023-01-12T07:01:41.334Z,11.20
2023-01-12T07:04:08.629Z,4.00
2023-01-12T07:06:35.671Z,3.10
2023-01-12T07:09:06.109Z,4.22
2023-01-12T07:11:33.090Z,5.97
2023-01-12T07:14:00.159Z,4.72
2023-01-12T07:16:27.120Z,4.43
2023-01-12T07:18:54.153Z,5.50
2023-01-12T07:21:22.214Z,3.30
2023-01-12T07:23:49.180Z,4.85
2023-01-12T07:26:16.057Z,5.18
2023-01-12T07:28:43.072Z,4.38
2023-01-12T07:31:10.137Z,6.03
2023-01-12T07:33:38.849Z,7.90
2023-01-12T07:36:06.213Z,10.38
2023-01-12T07:38:33.165Z,5.63
2023-01-12T07:41:04.092Z,5.40
2023-01-12T07:43:36.586Z,4.93
2023-01-12T07:48:56.797Z,8.55
2023-01-12T07:51:29.965Z,6.93
2023-01-12T07:54:38.308Z,12.57
2023-01-12T07:57:10.692Z,4.75
2023-01-12T07:59:38.289Z,5.80
2023-01-12T08:02:06.425Z,6.45
2023-01-12T08:04:45.396Z,5.10
2023-01-12T08:07:14.080Z,5.00
2023-01-12T08:09:43.251Z,5.95
2023-01-12T08:12:10.761Z,8.70
2023-01-12T08:14:48.274Z,5.85
2023-01-12T08:17:19.272Z,6.10
2023-01-12T08:20:02.685Z,4.30
2023-01-12T08:22:34.466Z,6.05
2023-01-12T08:25:09.913Z,6.20
2023-01-12T08:27:39.885Z,9.98
2023-01-12T08:30:08.759Z,4.88
2023-01-12T08:32:37.839Z,7.30
2023-01-12T08:35:05.340Z,5.15
2023-01-12T08:37:34.394Z,5.50
2023-01-12T08:40:02.858Z,2.97
2023-01-12T08:42:31.957Z,5.90
2023-01-12T08:44:59.540Z,6.95
2023-01-12T08:47:30.387Z,2.85
2023-01-12T08:50:02.868Z,4.05
2023-01-12T08:52:30.059Z,4.55
2023-01-12T08:54:57.998Z,1.55
2023-01-12T08:57:25.129Z,1.95
2023-01-12T08:59:52.225Z,5.13
2023-01-12T09:02:21.539Z,3.90
2023-01-12T09:04:48.681Z,3.83
2023-01-12T09:07:17.174Z,5.82
2023-01-12T09:09:46.469Z,2.22
2023-01-12T09:12:13.559Z,2.33
2023-01-12T09:14:40.488Z,2.72
2023-01-12T09:17:07.952Z,2.42
2023-01-12T09:19:35.017Z,6.75
2023-01-12T09:22:01.915Z,5.75
2023-01-12T09:24:28.849Z,4.13
2023-01-12T09:26:55.764Z,3.15
2023-01-12T09:29:22.682Z,3.85
2023-01-12T09:31:49.967Z,2.30
2023-01-12T09:34:17.033Z,1.48
2023-01-12T09:36:45.055Z,1.88
2023-01-12T09:39:26.888Z,1.20
2023-01-12T09:42:13.759Z,3.25
2023-01-12T09:45:08.855Z,2.67
2023-01-12T09:47:48.050Z,7.45
2023-01-12T09:50:22.625Z,5.00
2023-01-12T09:52:51.776Z,3.83
2023-01-12T09:55:22.045Z,1.83
2023-01-12T09:58:23.025Z,2.58
2023-01-12T10:00:56.821Z,4.93
2023-01-12T10:03:35.723Z,4.93
2023-01-12T10:06:02.878Z,3.25
2023-01-12T10:08:37.647Z,4.28
2023-01-12T10:11:23.320Z,0.70
2023-01-12T10:14:13.213Z,3.05
2023-01-12T10:17:01.840Z,2.38
2023-01-12T10:20:05.859Z,2.95
2023-01-12T10:22:51.107Z,5.60
2023-01-12T10:25:33.299Z,4.82
2023-01-12T10:28:04.942Z,1.23
2023-01-12T10:30:35.449Z,3.20
2023-01-12T10:33:30.233Z,5.70
2023-01-12T10:36:18.993Z,5.07
2023-01-12T10:38:54.406Z,4.60
2023-01-12T10:41:23.430Z,4.78
2023-01-12T10:43:56.703Z,1.85
2023-01-12T10:46:26.957Z,3.58
2023-01-12T10:49:14.477Z,4.68
2023-01-12T10:52:02.567Z,5.40
2023-01-12T10:54:32.325Z,5.53
2023-01-12T10:57:05.102Z,4.22
2023-01-12T10:59:39.247Z,4.90
2023-01-12T11:02:15.036Z,2.05
2023-01-12T11:04:52.474Z,4.85
2023-01-12T11:07:26.115Z,6.35
2023-01-12T11:09:56.174Z,2.25
2023-01-12T11:12:38.271Z,5.72
2023-01-12T11:15:17.801Z,2.05
2023-01-12T11:18:19.554Z,1.00
2023-01-12T11:21:04.032Z,3.35
2023-01-12T11:24:00.458Z,5.88
2023-01-12T11:26:39.338Z,1.92
2023-01-12T11:29:39.459Z,7.20
2023-01-12T11:32:28.245Z,3.25
2023-01-12T11:35:30.487Z,2.63
2023-01-12T11:38:05.344Z,6.22
2023-01-12T11:40:36.426Z,2.33
2023-01-12T11:43:39.267Z,3.05
2023-01-12T11:46:35.653Z,1.73
2023-01-12T11:49:20.505Z,2.60
2023-01-12T11:51:57.216Z,2.08
2023-01-12T11:54:28.835Z,3.10
2023-01-12T11:57:28.869Z,4.60
2023-01-12T12:00:35.366Z,3.67
2023-01-12T12:03:26.477Z,2.75
2023-01-12T12:06:07.504Z,3.38
2023-01-12T12:08:48.959Z,6.68
2023-01-12T12:11:30.371Z,2.80
2023-01-12T12:14:08.284Z,1.90
2023-01-12T12:17:11.481Z,4.15
2023-01-12T12:20:03.426Z,3.28
2023-01-12T12:22:39.397Z,1.73
2023-01-12T12:25:22.316Z,5.70
2023-01-12T12:27:52.062Z,3.78
2023-01-12T12:31:03.348Z,5.32
2023-01-12T12:33:50.799Z,12.75
2023-01-12T12:36:34.195Z,2.33
2023-01-12T12:41:59.189Z,7.65
2023-01-12T12:45:03.660Z,6.05
2023-01-12T12:47:47.107Z,4.05
2023-01-12T12:56:29.187Z,1.10
2023-01-12T12:59:04.099Z,2.30
2023-01-12T13:02:05.380Z,5.68
2023-01-12T13:05:32.737Z,4.20
2023-01-12T13:08:08.723Z,4.75
2023-01-12T13:10:42.048Z,7.45
2023-01-12T13:13:33.020Z,5.40
2023-01-12T13:30:56.838Z,3.50
2023-01-12T13:42:12.510Z,4.38
2023-01-12T13:49:23.620Z,3.65
2023-01-12T13:52:16.359Z,2.35
2023-01-12T13:54:55.114Z,2.42
2023-01-12T13:57:33.221Z,5.05
2023-01-12T14:00:25.744Z,3.53
2023-01-12T14:02:57.576Z,3.15
2023-01-12T14:05:42.684Z,8.87
2023-01-12T14:08:15.539Z,7.47
2023-01-12T14:14:19.529Z,4.47
2023-01-12T14:17:06.029Z,9.10
2023-01-12T14:19:33.112Z,10.25
2023-01-12T14:27:36.993Z,3.85
2023-01-12T14:37:01.994Z,3.88
2023-01-12T14:39:32.027Z,5.28
2023-01-12T14:42:17.435Z,5.80
2023-01-12T14:45:40.510Z,5.70
2023-01-12T14:48:28.104Z,9.25
2023-01-12T14:51:08.500Z,3.25
2023-01-12T14:53:39.786Z,4.63
2023-01-12T14:56:32.508Z,4.25
2023-01-12T14:59:14.566Z,2.03
2023-01-12T15:01:42.347Z,4.90
2023-01-12T15:04:23.213Z,3.85
2023-01-12T15:07:05.257Z,3.80
2023-01-12T15:09:35.364Z,2.88
2023-01-12T15:12:30.504Z,5.43
2023-01-12T15:15:19.674Z,5.88
2023-01-12T15:18:06.217Z,3.13
2023-01-12T15:21:06.388Z,3.05
2023-01-12T15:23:54.263Z,4.22
2023-01-12T15:26:22.558Z,5.97
2023-01-12T15:28:50.098Z,2.33
2023-01-12T15:31:26.637Z,1.75
2023-01-12T15:33:54.249Z,4.97
2023-01-12T15:36:21.172Z,3.28
2023-01-12T15:38:48.556Z,1.77
2023-01-12T15:41:18.805Z,2.70
2023-01-12T15:43:46.092Z,4.40
2023-01-12T15:46:19.679Z,1.52
2023-01-12T15:48:49.062Z,2.40
2023-01-12T15:51:16.484Z,3.90
2023-01-12T15:53:43.459Z,2.75
2023-01-12T15:56:15.232Z,5.10
2023-01-12T15:58:42.348Z,2.92
2023-01-12T16:01:14.065Z,13.65
2023-01-12T16:04:24.976Z,4.00
2023-01-12T16:06:37.600Z,5.07
2023-01-12T16:09:04.574Z,3.08
2023-01-12T16:11:31.633Z,4.40
2023-01-12T16:13:58.920Z,11.75
2023-01-12T16:16:28.493Z,4.20
2023-01-12T16:19:00.438Z,3.30
2023-01-12T16:21:28.438Z,1.98
2023-01-12T16:23:58.010Z,1.40
2023-01-12T16:26:26.488Z,4.05
2023-01-12T16:28:53.514Z,3.00
2023-01-12T16:31:20.771Z,1.98
2023-01-12T16:33:48.086Z,2.67
2023-01-12T16:36:16.024Z,1.92
2023-01-12T16:38:43.079Z,3.33
2023-01-12T16:41:24.584Z,3.05
2023-01-12T16:43:51.589Z,2.15
2023-01-12T16:46:18.861Z,1.77
2023-01-12T16:48:46.079Z,2.97
2023-01-12T16:51:15.141Z,1.25
2023-01-12T16:53:43.426Z,2.45
2023-01-12T16:56:12.188Z,4.35
2023-01-12T16:58:39.390Z,1.35
2023-01-12T17:01:14.348Z,2.30
2023-01-12T17:03:41.779Z,2.92
2023-01-12T17:06:15.108Z,2.50
2023-01-12T17:08:43.707Z,2.53
2023-01-12T17:11:13.841Z,1.95
2023-01-12T17:13:41.495Z,1.75
2023-01-12T17:16:10.859Z,2.33
2023-01-12T17:18:39.313Z,3.15
2023-01-12T17:21:13.474Z,2.03
2023-01-12T17:23:41.954Z,2.78
2023-01-12T17:26:13.140Z,2.13
2023-01-12T17:28:41.156Z,2.08
2023-01-12T17:31:19.232Z,1.35
2023-01-12T17:33:46.774Z,2.70
2023-01-12T17:36:14.255Z,7.32
2023-01-12T17:38:41.354Z,1.88
2023-01-12T17:41:34.080Z,3.83
2023-01-12T17:44:04.442Z,1.77
2023-01-12T17:46:32.247Z,11.55
2023-01-12T17:49:04.319Z,1.88
2023-01-12T17:51:31.517Z,4.05
2023-01-12T17:54:00.239Z,5.47
2023-01-12T17:56:30.626Z,3.20
2023-01-12T17:58:58.162Z,2.03
2023-01-12T18:01:26.989Z,1.92
2023-01-12T18:03:54.008Z,2.50
2023-01-12T18:06:27.537Z,3.47
2023-01-12T18:08:56.727Z,2.63
2023-01-12T18:11:24.447Z,3.60
2023-01-12T18:13:52.004Z,2.28
2023-01-12T18:16:19.194Z,4.00
2023-01-12T18:18:46.297Z,4.47
2023-01-12T18:21:20.580Z,1.85
2023-01-12T18:23:48.905Z,3.38
2023-01-12T18:26:18.613Z,2.78
2023-01-12T18:28:45.840Z,3.17
2023-01-12T18:31:15.880Z,4.68
2023-01-12T18:33:43.523Z,11.00
2023-01-12T18:36:12.831Z,6.55
2023-01-12T18:38:41.426Z,9.52
2023-01-12T18:41:27.599Z,7.05
2023-01-12T18:43:55.189Z,7.72
2023-01-12T18:46:42.104Z,3.58
2023-01-12T18:49:09.327Z,3.13
2023-01-12T18:51:54.842Z,2.20
2023-01-12T18:54:22.597Z,3.40
2023-01-12T18:56:51.283Z,3.65
2023-01-12T18:59:18.282Z,3.63
2023-01-12T19:01:45.394Z,3.28
2023-01-12T19:04:15.339Z,4.45
2023-01-12T19:06:42.469Z,2.70
2023-01-12T19:09:27.901Z,1.50
2023-01-12T19:11:54.894Z,3.30
2023-01-12T19:14:40.437Z,3.85
2023-01-12T19:17:26.949Z,2.28
2023-01-12T19:19:56.424Z,2.83
2023-01-12T19:22:42.317Z,3.50
2023-01-12T19:25:36.395Z,1.98
2023-01-12T19:28:22.962Z,1.05
2023-01-12T19:30:50.039Z,0.80
2023-01-12T19:33:17.756Z,5.38
2023-01-12T19:35:46.195Z,2.35
2023-01-12T19:38:14.934Z,0.73
2023-01-12T19:40:50.873Z,4.00
2023-01-12T19:43:21.026Z,1.42
2023-01-12T19:45:53.431Z,2.28
2023-01-12T19:48:23.648Z,4.05
2023-01-12T19:50:51.697Z,5.22
2023-01-12T19:53:28.767Z,3.53
2023-01-12T19:55:56.414Z,2.70
2023-01-12T19:58:25.214Z,2.38
2023-01-12T20:00:56.145Z,3.25
2023-01-12T20:03:25.691Z,2.30
2023-01-12T20:05:53.021Z,2.78
2023-01-12T20:08:22.164Z,3.50
2023-01-12T20:11:00.799Z,3.70
2023-01-12T20:13:29.111Z,4.13
2023-01-12T20:15:57.677Z,3.88
2023-01-12T20:18:24.729Z,3.85
2023-01-12T20:20:53.327Z,2.67
2023-01-12T20:23:20.393Z,3.33
2023-01-12T20:25:47.350Z,1.85
2023-01-12T20:28:14.953Z,2.17
2023-01-12T20:30:43.053Z,4.22
2023-01-12T20:33:11.354Z,2.33
2023-01-12T20:35:43.945Z,3.92
2023-01-12T20:38:15.595Z,2.38
2023-01-12T20:40:44.299Z,4.85
2023-01-12T20:43:11.288Z,2.97
2023-01-12T20:45:40.503Z,2.00
2023-01-12T20:48:07.453Z,3.25
2023-01-12T20:50:34.455Z,1.83
2023-01-12T20:53:01.343Z,0.88
2023-01-12T20:55:28.327Z,8.00
2023-01-12T20:57:55.298Z,3.70
2023-01-12T21:00:22.246Z,5.70
2023-01-12T21:02:49.302Z,4.07
2023-01-12T21:05:16.257Z,3.45
2023-01-12T21:07:43.489Z,3.97
2023-01-12T21:10:12.048Z,3.60
2023-01-12T21:12:39.147Z,3.17
2023-01-12T21:15:06.538Z,2.97
2023-01-12T21:17:35.543Z,2.03
2023-01-12T21:20:02.459Z,2.35
2023-01-12T21:22:29.418Z,4.13
2023-01-12T21:24:56.263Z,5.45
2023-01-12T21:27:23.219Z,2.70
2023-01-12T21:29:50.123Z,4.13
2023-01-12T21:32:17.136Z,4.38
2023-01-12T21:34:44.172Z,2.70
2023-01-12T21:37:11.277Z,7.20
2023-01-12T21:39:38.225Z,6.28
2023-01-12T21:42:23.574Z,9.25
2023-01-12T21:44:50.567Z,3.55
2023-01-12T21:47:17.504Z,5.60
2023-01-12T21:49:44.473Z,5.60
2023-01-12T21:52:11.633Z,4.70
2023-01-12T21:54:38.722Z,2.55
2023-01-12T21:57:05.660Z,3.72
2023-01-12T21:59:32.663Z,1.65
2023-01-12T22:01:59.694Z,3.60
2023-01-12T22:04:26.852Z,2.30
2023-01-12T22:06:53.861Z,3.33
2023-01-12T22:09:21.192Z,2.75
2023-01-12T22:11:48.117Z,1.08
2023-01-12T22:14:15.131Z,1.98
2023-01-12T22:16:42.160Z,6.60
2023-01-12T22:19:09.173Z,3.33
2023-01-12T22:21:36.250Z,1.88
2023-01-12T22:24:04.046Z,0.90
2023-01-12T22:26:32.609Z,3.30
2023-01-12T22:28:59.635Z,2.45
2023-01-12T22:31:26.987Z,1.48
2023-01-12T22:34:04.075Z,1.70
2023-01-12T22:36:34.708Z,3.35
2023-01-12T22:39:02.070Z,2.83
2023-01-12T22:41:28.963Z,1.05
2023-01-12T22:43:55.959Z,3.15
2023-01-12T22:46:27.552Z,2.28
2023-01-12T22:48:56.621Z,3.08
2023-01-12T22:51:25.889Z,1.08
2023-01-12T22:53:54.091Z,1.10
2023-01-12T22:56:21.347Z,3.33
2023-01-12T22:58:50.226Z,1.83
2023-01-12T23:01:19.199Z,3.80
2023-01-12T23:03:48.113Z,1.25
2023-01-12T23:06:17.245Z,1.60
2023-01-12T23:08:45.307Z,2.33
2023-01-12T23:11:15.152Z,2.25
2023-01-12T23:13:44.278Z,3.35
2023-01-12T23:16:13.821Z,1.05
2023-01-12T23:18:42.563Z,4.43
2023-01-12T23:21:21.645Z,1.40
2023-01-12T23:23:54.234Z,4.70
2023-01-12T23:26:27.488Z,1.65
2023-01-12T23:28:59.688Z,3.03
2023-01-12T23:31:30.355Z,2.58
2023-01-12T23:33:58.115Z,1.90
2023-01-12T23:36:27.365Z,1.85
2023-01-12T23:38:55.409Z,3.67
2023-01-12T23:41:25.316Z,1.70
2023-01-12T23:43:56.342Z,3.55
2023-01-12T23:46:24.169Z,2.58
2023-01-12T23:48:53.421Z,1.60
2023-01-12T23:51:21.616Z,4.20
2023-01-12T23:53:51.383Z,2.83
2023-01-12T23:56:19.742Z,0.73
2023-01-12T23:58:47.868Z,1.60
